createdAt,value
2023-01-07T00:02:12.295Z,100403.35
2023-01-07T00:07:15.089Z,100410.64
2023-01-07T00:12:17.791Z,100420.67
2023-01-07T00:17:20.440Z,100418.65
2023-01-07T00:22:23.288Z,100415.07
2023-01-07T00:27:26.032Z,100412.84
2023-01-07T00:33:01.250Z,100414.05
2023-01-07T00:38:05.362Z,100413.20
2023-01-07T00:43:08.183Z,100411.37
2023-01-07T00:48:11.471Z,100419.34
2023-01-07T00:53:14.093Z,100424.73
2023-01-07T00:58:25.114Z,100427.66
2023-01-07T01:03:29.691Z,100433.53
2023-01-07T01:08:32.544Z,100429.09
2023-01-07T01:13:36.123Z,100421.54
2023-01-07T01:18:39.362Z,100432.23
2023-01-07T01:23:42.864Z,100436.56
2023-01-07T01:28:45.827Z,100436.95
2023-01-07T01:33:48.656Z,100433.70
2023-01-07T01:38:51.963Z,100431.12
2023-01-07T01:43:54.707Z,100426.81
2023-01-07T01:49:03.506Z,100427.48
2023-01-07T01:54:11.387Z,100429.20
2023-01-07T01:59:20.786Z,100428.02
2023-01-07T02:04:25.970Z,100421.38
2023-01-07T02:09:28.888Z,100416.42
2023-01-07T02:14:47.939Z,100415.73
2023-01-07T02:20:16.977Z,100414.15
2023-01-07T02:25:42.041Z,100419.15
2023-01-07T02:31:07.378Z,100411.62
2023-01-07T02:36:14.371Z,100413.06
2023-01-07T02:41:39.348Z,100415.69
2023-01-07T02:47:09.938Z,100417.60
2023-01-07T02:52:23.132Z,100410.55
2023-01-07T02:57:35.896Z,100406.09
2023-01-07T03:03:04.287Z,100406.09
2023-01-07T03:08:28.747Z,100404.71
2023-01-07T03:13:51.424Z,100403.52
2023-01-07T03:19:09.831Z,100402.48
2023-01-07T03:24:14.889Z,100406.81
2023-01-07T03:29:19.928Z,100415.11
2023-01-07T03:34:25.049Z,100418.05
2023-01-07T03:39:31.871Z,100421.18
2023-01-07T03:44:34.815Z,100434.31
2023-01-07T03:49:38.588Z,100426.36
2023-01-07T03:54:41.530Z,100432.92
2023-01-07T03:59:44.209Z,100440.16
2023-01-07T04:04:46.914Z,100438.10
2023-01-07T04:09:50.844Z,100441.20
2023-01-07T04:14:53.553Z,100446.03
2023-01-07T04:19:56.284Z,100440.52
2023-01-07T04:24:58.920Z,100442.10
2023-01-07T04:30:01.608Z,100446.07
2023-01-07T04:35:05.019Z,100448.50
2023-01-07T04:40:08.839Z,100448.16
2023-01-07T04:45:11.688Z,100457.31
2023-01-07T04:50:14.838Z,100461.27
2023-01-07T04:55:17.801Z,100463.52
2023-01-07T05:00:20.516Z,100462.66
2023-01-07T05:05:23.297Z,100457.66
2023-01-07T05:10:25.984Z,100454.55
2023-01-07T05:15:28.642Z,100456.97
2023-01-07T05:20:31.305Z,100460.43
2023-01-07T05:25:35.212Z,100460.95
2023-01-07T05:30:39.548Z,100462.68
2023-01-07T05:35:42.351Z,100473.39
2023-01-07T05:40:49.849Z,100473.56
2023-01-07T05:45:52.993Z,100472.37
2023-01-07T05:50:55.732Z,100469.59
2023-01-07T05:55:59.791Z,100468.71
2023-01-07T06:01:03.053Z,100461.98
2023-01-07T06:06:07.486Z,100456.11
2023-01-07T06:11:10.460Z,100460.09
2023-01-07T06:16:14.623Z,100473.73
2023-01-07T06:21:18.533Z,100480.12
2023-01-07T06:26:21.212Z,100497.27
2023-01-07T06:31:23.999Z,100498.81
2023-01-07T06:36:26.977Z,100503.31
2023-01-07T06:41:29.681Z,100512.83
2023-01-07T06:46:32.431Z,100514.02
2023-01-07T06:51:35.539Z,100522.16
2023-01-07T06:56:38.328Z,100525.62
2023-01-07T07:01:41.184Z,100521.64
2023-01-07T07:06:44.037Z,100532.20
2023-01-07T07:11:46.789Z,100544.65
2023-01-07T07:16:49.740Z,100548.45
2023-01-07T07:21:52.441Z,100538.58
2023-01-07T07:26:55.220Z,100536.67
2023-01-07T07:31:57.888Z,100543.59
2023-01-07T07:37:01.425Z,100545.84
2023-01-07T07:42:05.359Z,100552.23
2023-01-07T07:47:12.097Z,100553.63
2023-01-07T07:52:14.769Z,100551.73
2023-01-07T07:57:17.470Z,100554.98
2023-01-07T08:02:20.231Z,100555.14
2023-01-07T08:07:32.147Z,100566.55
2023-01-07T08:12:38.066Z,100564.45
2023-01-07T08:17:40.767Z,100568.60
2023-01-07T08:22:43.496Z,100572.54
2023-01-07T08:27:46.476Z,100584.46
2023-01-07T08:32:49.371Z,100589.63
2023-01-07T08:37:52.160Z,100591.66
2023-01-07T08:42:58.989Z,100590.55
2023-01-07T08:48:01.978Z,100591.33
2023-01-07T08:53:04.775Z,100599.39
2023-01-07T08:58:07.568Z,100597.39
2023-01-07T09:03:10.257Z,100590.64
2023-01-07T09:08:12.966Z,100595.54
2023-01-07T09:13:15.986Z,100604.00
2023-01-07T09:18:19.760Z,100607.52
2023-01-07T09:23:22.721Z,100607.95
2023-01-07T09:28:25.505Z,100607.90
2023-01-07T09:33:28.205Z,100606.88
2023-01-07T09:38:31.212Z,100616.27
2023-01-07T09:44:00.715Z,100617.61
2023-01-07T09:49:04.510Z,100616.39
2023-01-07T09:54:18.796Z,100620.77
2023-01-07T09:59:21.763Z,100623.35
2023-01-07T10:04:53.089Z,100627.97
2023-01-07T10:10:02.255Z,100626.92
2023-01-07T10:15:33.181Z,100628.39
2023-01-07T10:20:50.086Z,100633.14
2023-01-07T10:25:56.044Z,100617.70
2023-01-07T10:31:00.860Z,100606.20
2023-01-07T10:36:23.974Z,100595.34
2023-01-07T10:42:05.054Z,100586.75
2023-01-07T10:47:30.996Z,100585.77
2023-01-07T10:52:43.757Z,100583.02
2023-01-07T10:57:48.652Z,100587.91
2023-01-07T11:02:56.601Z,100591.39
2023-01-07T11:08:04.321Z,100593.23
2023-01-07T11:13:14.712Z,100596.20
2023-01-07T11:18:36.425Z,100594.38
2023-01-07T11:23:43.769Z,100602.26
2023-01-07T11:28:53.634Z,100593.94
2023-01-07T11:34:01.425Z,100594.79
2023-01-07T11:39:31.348Z,100591.02
2023-01-07T11:44:34.001Z,100593.34
2023-01-07T11:49:44.347Z,100583.70
2023-01-07T11:54:53.696Z,100582.41
2023-01-07T12:00:13.781Z,100581.05
2023-01-07T12:05:23.672Z,100582.58
2023-01-07T12:10:34.321Z,100574.63
2023-01-07T12:15:48.889Z,100567.84
2023-01-07T12:21:19.574Z,100566.27
2023-01-07T12:26:32.464Z,100562.74
2023-01-07T12:31:58.240Z,100557.17
2023-01-07T12:37:13.148Z,100558.55
2023-01-07T12:42:30.221Z,100554.88
2023-01-07T12:47:37.694Z,100555.51
2023-01-07T12:52:46.175Z,100559.59
2023-01-07T12:58:14.976Z,100556.73
2023-01-07T13:03:45.395Z,100557.02
2023-01-07T13:09:09.834Z,100556.30
2023-01-07T13:14:21.299Z,100557.17
2023-01-07T13:19:24.221Z,100561.05
2023-01-07T13:24:55.143Z,100564.39
2023-01-07T13:30:39.151Z,100564.83
2023-01-07T13:36:12.142Z,100562.96
2023-01-07T13:41:40.645Z,100570.63
2023-01-07T13:46:45.775Z,100576.20
2023-01-07T13:51:48.683Z,100575.25
2023-01-07T13:56:52.745Z,100575.46
2023-01-07T14:02:18.218Z,100569.42
2023-01-07T14:07:21.199Z,100571.16
2023-01-07T14:12:44.020Z,100572.22
2023-01-07T14:18:08.055Z,100580.20
2023-01-07T14:23:25.165Z,100582.62
2023-01-07T14:28:55.629Z,100584.89
2023-01-07T14:34:05.089Z,100590.29
2023-01-07T14:39:33.701Z,100600.20
2023-01-07T14:44:36.373Z,100597.63
2023-01-07T14:49:50.464Z,100603.70
2023-01-07T14:55:11.687Z,100607.19
2023-01-07T15:00:36.106Z,100610.50
2023-01-07T15:06:00.203Z,100606.16
2023-01-07T15:11:22.986Z,100604.95
2023-01-07T15:16:26.241Z,100605.84
2023-01-07T15:21:35.030Z,100604.29
2023-01-07T15:26:43.557Z,100603.95
2023-01-07T15:31:57.906Z,100607.23
2023-01-07T15:37:05.652Z,100601.52
2023-01-07T15:42:16.256Z,100591.32
2023-01-07T15:47:41.610Z,100591.31
2023-01-07T15:52:50.341Z,100593.23
2023-01-07T15:57:59.145Z,100593.76
2023-01-07T16:03:04.411Z,100592.02
2023-01-07T16:08:20.209Z,100581.83
2023-01-07T16:13:22.911Z,100571.79
2023-01-07T16:18:25.680Z,100579.07
2023-01-07T16:23:39.568Z,100574.91
2023-01-07T16:28:53.820Z,100576.83
2023-01-07T16:33:59.674Z,100574.06
2023-01-07T16:39:14.290Z,100569.56
2023-01-07T16:44:54.840Z,100563.48
2023-01-07T16:50:16.148Z,100547.20
2023-01-07T16:55:54.701Z,100542.19
2023-01-07T17:01:00.651Z,100546.69
2023-01-07T17:06:07.305Z,100540.45
2023-01-07T17:11:40.225Z,100536.63
2023-01-07T17:16:42.980Z,100531.58
2023-01-07T17:21:45.827Z,100540.73
2023-01-07T17:26:51.424Z,100542.81
2023-01-07T17:31:54.953Z,100527.73
2023-01-07T17:36:57.771Z,100526.19
2023-01-07T17:42:19.282Z,100530.00
2023-01-07T17:47:22.381Z,100528.45
2023-01-07T17:52:25.179Z,100526.70
2023-01-07T17:57:27.880Z,100529.46
2023-01-07T18:02:31.704Z,100530.14
2023-01-07T18:07:34.558Z,100525.98
2023-01-07T18:12:37.282Z,100519.39
2023-01-07T18:17:39.937Z,100518.51
2023-01-07T18:22:43.196Z,100513.31
2023-01-07T18:27:46.098Z,100509.16
2023-01-07T18:32:51.383Z,100505.34
2023-01-07T18:37:54.090Z,100504.48
2023-01-07T18:42:56.782Z,100502.06
2023-01-07T18:47:59.446Z,100502.92
2023-01-07T18:53:02.985Z,100503.42
2023-01-07T18:58:06.696Z,100507.91
2023-01-07T19:03:10.691Z,100516.07
2023-01-07T19:08:13.489Z,100515.89
2023-01-07T19:13:16.198Z,100511.03
2023-01-07T19:18:18.859Z,100507.21
2023-01-07T19:23:22.521Z,100507.73
2023-01-07T19:28:25.752Z,100502.88
2023-01-07T19:33:28.372Z,100499.08
2023-01-07T19:38:31.360Z,100492.86
2023-01-07T19:43:34.052Z,100486.64
2023-01-07T19:48:36.740Z,100479.52
2023-01-07T19:53:39.756Z,100481.42
2023-01-07T19:58:42.569Z,100479.17
2023-01-07T20:03:45.801Z,100475.35
2023-01-07T20:08:48.886Z,100470.47
2023-01-07T20:13:51.568Z,100459.02
2023-01-07T20:18:55.641Z,100455.03
2023-01-07T20:23:58.367Z,100455.38
2023-01-07T20:29:01.906Z,100444.78
2023-01-07T20:34:04.624Z,100442.33
2023-01-07T20:39:07.423Z,100440.79
2023-01-07T20:44:11.937Z,100439.93
2023-01-07T20:49:15.902Z,100440.09
2023-01-07T20:54:18.887Z,100438.14
2023-01-07T20:59:21.539Z,100433.11
2023-01-07T21:04:24.362Z,100429.48
2023-01-07T21:09:30.886Z,100426.70
2023-01-07T21:14:33.680Z,100431.02
2023-01-07T21:19:38.206Z,100431.54
2023-01-07T21:24:40.874Z,100421.83
2023-01-07T21:29:45.160Z,100413.14
2023-01-07T21:34:47.849Z,100415.54
2023-01-07T21:39:51.382Z,100415.21
2023-01-07T21:44:54.047Z,100426.31
2023-01-07T21:49:57.010Z,100426.66
2023-01-07T21:54:59.681Z,100425.95
2023-01-07T22:00:03.885Z,100424.77
2023-01-07T22:05:07.186Z,100420.80
2023-01-07T22:10:09.851Z,100421.67
2023-01-07T22:15:12.541Z,100419.94
2023-01-07T22:20:15.429Z,100411.44
2023-01-07T22:25:18.122Z,100411.64
2023-01-07T22:30:22.049Z,100411.10
2023-01-07T22:35:25.456Z,100407.48
2023-01-07T22:40:32.489Z,100410.95
2023-01-07T22:45:44.246Z,100410.60
2023-01-07T22:50:47.167Z,100412.70
2023-01-07T22:55:49.966Z,100415.83
2023-01-07T23:00:52.755Z,100407.01
2023-01-07T23:05:55.857Z,100403.73
2023-01-07T23:10:58.593Z,100398.02
2023-01-07T23:16:03.745Z,100394.02
2023-01-07T23:21:06.855Z,100381.18
2023-01-07T23:26:13.867Z,100375.31
2023-01-07T23:31:16.789Z,100374.11
2023-01-07T23:36:19.661Z,100366.46
2023-01-07T23:41:22.730Z,100355.67
2023-01-07T23:46:25.479Z,100351.66
2023-01-07T23:51:28.221Z,100347.68
2023-01-07T23:56:30.970Z,100342.63
